Time,TemperatureF,DewpointF,PressureIn,WindDirection,WindDirectionDegrees,WindSpeedMPH,WindSpeedGustMPH,Humidity,HourlyPrecipIn,Conditions,Clouds,dailyrainin,SolarRadiationWatts/m^2,SoftwareType,DateUTC
2013-03-02 00:01:00,41.0,7.0,-100.00,NNW,340,6.0,7.0,24,0.00,,,0.00,0.000000,,2013-03-02 07:01:00,
2013-03-02 00:22:00,41.0,7.0,-100.00,NNW,340,6.0,7.0,24,0.00,,,0.00,0.000000,,2013-03-02 07:22:00,
2013-03-02 00:32:00,41.0,7.0,-100.00,NNW,340,6.0,7.0,24,0.00,,,0.00,0.000000,,2013-03-02 07:32:00,
2013-03-02 00:42:00,41.0,7.0,-100.00,NNW,340,6.0,7.0,24,0.00,,,0.00,0.000000,,2013-03-02 07:42:00,
2013-03-02 00:52:00,41.0,7.0,-100.00,NNW,340,6.0,7.0,24,0.00,,,0.00,0.000000,,2013-03-02 07:52:00,
2013-03-02 01:01:00,41.0,8.0,-100.00,North,356,6.0,7.0,25,0.00,,,0.00,0.000000,,2013-03-02 08:01:00,
2013-03-02 01:32:00,41.0,8.0,-100.00,North,356,6.0,7.0,25,0.00,,,0.00,0.000000,,2013-03-02 08:32:00,
2013-03-02 01:43:00,41.0,8.0,-100.00,North,356,6.0,7.0,25,0.00,,,0.00,0.000000,,2013-03-02 08:43:00,
2013-03-02 01:52:00,41.0,8.0,-100.00,North,356,6.0,7.0,25,0.00,,,0.00,0.000000,,2013-03-02 08:52:00,
2013-03-02 02:01:00,42.0,9.0,-100.00,NW,325,6.0,8.0,25,0.00,,,0.00,0.000000,,2013-03-02 09:01:00,
2013-03-02 02:22:00,42.0,9.0,-100.00,NW,325,6.0,8.0,25,0.00,,,0.00,0.000000,,2013-03-02 09:22:00,
2013-03-02 02:32:00,42.0,9.0,-100.00,NW,325,6.0,8.0,25,0.00,,,0.00,0.000000,,2013-03-02 09:32:00,
2013-03-02 02:42:00,42.0,9.0,-100.00,NW,325,6.0,8.0,25,0.00,,,0.00,0.000000,,2013-03-02 09:42:00,
2013-03-02 02:52:00,42.0,9.0,-100.00,NW,325,6.0,8.0,25,0.00,,,0.00,0.000000,,2013-03-02 09:52:00,
2013-03-02 03:01:00,41.0,7.0,-100.00,NNW,331,6.0,8.0,24,0.00,,,0.00,0.000000,,2013-03-02 10:01:00,
2013-03-02 03:32:00,41.0,7.0,-100.00,NNW,331,6.0,8.0,24,0.00,,,0.00,0.000000,,2013-03-02 10:32:00,
2013-03-02 03:43:00,41.0,7.0,-100.00,NNW,331,6.0,8.0,24,0.00,,,0.00,0.000000,,2013-03-02 10:43:00,
2013-03-02 03:52:00,41.0,7.0,-100.00,NNW,331,6.0,8.0,24,0.00,,,0.00,0.000000,,2013-03-02 10:52:00,
2013-03-02 04:01:00,38.0,7.0,-100.00,NNE,13,3.0,8.0,27,0.00,,,0.00,0.000000,,2013-03-02 11:01:00,
2013-03-02 04:32:00,38.0,7.0,-100.00,NNE,13,3.0,8.0,27,0.00,,,0.00,0.000000,,2013-03-02 11:32:00,
2013-03-02 04:42:00,38.0,7.0,-100.00,NNE,13,3.0,8.0,27,0.00,,,0.00,0.000000,,2013-03-02 11:42:00,
2013-03-02 04:52:00,38.0,7.0,-100.00,NNE,13,3.0,8.0,27,0.00,,,0.00,0.000000,,2013-03-02 11:52:00,
2013-03-02 05:01:00,38.0,9.0,-100.00,NW,314,3.0,6.0,29,0.00,,,0.00,0.000000,,2013-03-02 12:01:00,
2013-03-02 05:22:00,38.0,9.0,-100.00,NW,314,3.0,6.0,29,0.00,,,0.00,0.000000,,2013-03-02 12:22:00,
2013-03-02 05:33:00,38.0,9.0,-100.00,NW,314,3.0,6.0,29,0.00,,,0.00,0.000000,,2013-03-02 12:33:00,
2013-03-02 05:43:00,38.0,9.0,-100.00,NW,314,3.0,6.0,29,0.00,,,0.00,0.000000,,2013-03-02 12:43:00,
2013-03-02 05:53:00,38.0,9.0,-100.00,NW,314,3.0,6.0,29,0.00,,,0.00,0.000000,,2013-03-02 12:53:00,
2013-03-02 06:01:00,39.0,11.0,-100.00,ESE,104,1.0,5.0,31,0.00,,,0.00,0.000000,,2013-03-02 13:01:00,
2013-03-02 06:22:00,39.0,11.0,-100.00,ESE,104,1.0,5.0,31,0.00,,,0.00,0.000000,,2013-03-02 13:22:00,
2013-03-02 06:32:00,39.0,11.0,-100.00,ESE,104,1.0,5.0,31,0.00,,,0.00,0.000000,,2013-03-02 13:32:00,
2013-03-02 06:42:00,39.0,11.0,-100.00,ESE,104,1.0,5.0,31,0.00,,,0.00,0.000000,,2013-03-02 13:42:00,
2013-03-02 06:52:00,39.0,11.0,-100.00,ESE,104,1.0,5.0,31,0.00,,,0.00,0.000000,,2013-03-02 13:52:00,
2013-03-02 07:01:00,39.0,13.0,-100.00,NW,311,2.0,4.0,34,0.00,,,0.00,6.000000,,2013-03-02 14:01:00,
2013-03-02 07:22:00,39.0,13.0,-100.00,NW,311,2.0,4.0,34,0.00,,,0.00,6.000000,,2013-03-02 14:22:00,
2013-03-02 07:32:00,39.0,13.0,-100.00,NW,311,2.0,4.0,34,0.00,,,0.00,6.000000,,2013-03-02 14:32:00,
2013-03-02 07:42:00,39.0,13.0,-100.00,NW,311,2.0,4.0,34,0.00,,,0.00,6.000000,,2013-03-02 14:42:00,
2013-03-02 07:52:00,39.0,13.0,-100.00,NW,311,2.0,4.0,34,0.00,,,0.00,6.000000,,2013-03-02 14:52:00,
2013-03-02 08:01:00,51.0,17.0,-100.00,ENE,64,4.0,7.0,26,0.00,,,0.00,166.000000,,2013-03-02 15:01:00,
2013-03-02 08:32:00,51.0,17.0,-100.00,ENE,64,4.0,7.0,26,0.00,,,0.00,166.000000,,2013-03-02 15:32:00,
2013-03-02 08:42:00,51.0,17.0,-100.00,ENE,64,4.0,7.0,26,0.00,,,0.00,166.000000,,2013-03-02 15:42:00,
2013-03-02 08:52:00,51.0,17.0,-100.00,ENE,64,4.0,7.0,26,0.00,,,0.00,166.000000,,2013-03-02 15:52:00,
2013-03-02 09:01:00,54.0,15.0,-100.00,NW,304,6.0,9.0,21,0.00,,,0.00,423.000000,,2013-03-02 16:01:00,
2013-03-02 09:22:00,54.0,15.0,-100.00,NW,304,6.0,9.0,21,0.00,,,0.00,423.000000,,2013-03-02 16:22:00,
2013-03-02 09:32:00,54.0,15.0,-100.00,NW,304,6.0,9.0,21,0.00,,,0.00,423.000000,,2013-03-02 16:32:00,
2013-03-02 09:42:00,54.0,15.0,-100.00,NW,304,6.0,9.0,21,0.00,,,0.00,423.000000,,2013-03-02 16:42:00,
2013-03-02 09:52:00,54.0,15.0,-100.00,NW,304,6.0,9.0,21,0.00,,,0.00,423.000000,,2013-03-02 16:52:00,
2013-03-02 10:01:00,55.0,16.0,-100.00,NW,321,6.0,9.0,21,0.00,,,0.00,626.000000,,2013-03-02 17:01:00,
2013-03-02 10:32:00,55.0,16.0,-100.00,NW,321,6.0,9.0,21,0.00,,,0.00,626.000000,,2013-03-02 17:32:00,
2013-03-02 10:42:00,55.0,16.0,-100.00,NW,321,6.0,9.0,21,0.00,,,0.00,626.000000,,2013-03-02 17:42:00,
2013-03-02 10:52:00,55.0,16.0,-100.00,NW,321,6.0,9.0,21,0.00,,,0.00,626.000000,,2013-03-02 17:52:00,
2013-03-02 11:01:00,58.0,16.0,-100.00,NW,308,5.0,10.0,19,0.00,,,0.00,780.000000,,2013-03-02 18:01:00,
2013-03-02 11:32:00,58.0,16.0,-100.00,NW,308,5.0,10.0,19,0.00,,,0.00,780.000000,,2013-03-02 18:32:00,
2013-03-02 11:42:00,58.0,16.0,-100.00,NW,308,5.0,10.0,19,0.00,,,0.00,780.000000,,2013-03-02 18:42:00,
2013-03-02 11:52:00,58.0,16.0,-100.00,NW,308,5.0,10.0,19,0.00,,,0.00,780.000000,,2013-03-02 18:52:00,
2013-03-02 12:01:00,59.0,14.0,-100.00,WNW,293,8.0,14.0,17,0.00,,,0.00,870.000000,,2013-03-02 19:01:00,
2013-03-02 12:32:00,59.0,14.0,-100.00,WNW,293,8.0,14.0,17,0.00,,,0.00,870.000000,,2013-03-02 19:32:00,
2013-03-02 12:42:00,59.0,14.0,-100.00,WNW,293,8.0,14.0,17,0.00,,,0.00,870.000000,,2013-03-02 19:42:00,
2013-03-02 12:52:00,59.0,14.0,-100.00,WNW,293,8.0,14.0,17,0.00,,,0.00,870.000000,,2013-03-02 19:52:00,
2013-03-02 13:01:00,61.0,14.0,-100.00,WSW,239,8.0,14.0,16,0.00,,,0.00,888.000000,,2013-03-02 20:01:00,
2013-03-02 13:22:00,61.0,14.0,-100.00,WSW,239,8.0,14.0,16,0.00,,,0.00,888.000000,,2013-03-02 20:22:00,
2013-03-02 13:32:00,61.0,14.0,-100.00,WSW,239,8.0,14.0,16,0.00,,,0.00,888.000000,,2013-03-02 20:32:00,
2013-03-02 13:42:00,61.0,14.0,-100.00,WSW,239,8.0,14.0,16,0.00,,,0.00,888.000000,,2013-03-02 20:42:00,
2013-03-02 13:52:00,61.0,14.0,-100.00,WSW,239,8.0,14.0,16,0.00,,,0.00,888.000000,,2013-03-02 20:52:00,
2013-03-02 14:01:00,62.0,15.0,-100.00,West,261,10.0,17.0,16,0.00,,,0.00,831.000000,,2013-03-02 21:01:00,
2013-03-02 14:32:00,62.0,15.0,-100.00,West,261,10.0,17.0,16,0.00,,,0.00,831.000000,,2013-03-02 21:32:00,
2013-03-02 14:42:00,62.0,15.0,-100.00,West,261,10.0,17.0,16,0.00,,,0.00,831.000000,,2013-03-02 21:42:00,
2013-03-02 14:52:00,62.0,15.0,-100.00,West,261,10.0,17.0,16,0.00,,,0.00,831.000000,,2013-03-02 21:52:00,
2013-03-02 15:01:00,63.0,15.0,-100.00,WNW,288,8.0,18.0,15,0.00,,,0.00,709.000000,,2013-03-02 22:01:00,
2013-03-02 15:32:00,63.0,15.0,-100.00,WNW,288,8.0,18.0,15,0.00,,,0.00,709.000000,,2013-03-02 22:32:00,
2013-03-02 15:42:00,63.0,15.0,-100.00,WNW,288,8.0,18.0,15,0.00,,,0.00,709.000000,,2013-03-02 22:42:00,
2013-03-02 15:52:00,63.0,15.0,-100.00,WNW,288,8.0,18.0,15,0.00,,,0.00,709.000000,,2013-03-02 22:52:00,
2013-03-02 16:01:00,63.0,11.0,-100.00,WNW,301,7.0,15.0,13,0.00,,,0.00,533.000000,,2013-03-02 23:01:00,
2013-03-02 16:32:00,63.0,11.0,-100.00,WNW,301,7.0,15.0,13,0.00,,,0.00,533.000000,,2013-03-02 23:32:00,
2013-03-02 16:42:00,63.0,11.0,-100.00,WNW,301,7.0,15.0,13,0.00,,,0.00,533.000000,,2013-03-02 23:42:00,
2013-03-02 16:52:00,63.0,11.0,-100.00,WNW,301,7.0,15.0,13,0.00,,,0.00,533.000000,,2013-03-02 23:52:00,
2013-03-02 17:01:00,63.0,11.0,-100.00,WNW,293,5.0,12.0,13,0.00,,,0.00,320.000000,,2013-03-03 00:01:00,
2013-03-02 17:32:00,63.0,11.0,-100.00,WNW,293,5.0,12.0,13,0.00,,,0.00,320.000000,,2013-03-03 00:32:00,
2013-03-02 17:42:00,63.0,11.0,-100.00,WNW,293,5.0,12.0,13,0.00,,,0.00,320.000000,,2013-03-03 00:42:00,
2013-03-02 17:52:00,63.0,11.0,-100.00,WNW,293,5.0,12.0,13,0.00,,,0.00,320.000000,,2013-03-03 00:52:00,
2013-03-02 18:01:00,56.0,7.0,-100.00,West,279,5.0,12.0,14,0.00,,,0.00,92.000000,,2013-03-03 01:01:00,
2013-03-02 18:32:00,56.0,7.0,-100.00,West,279,5.0,12.0,14,0.00,,,0.00,92.000000,,2013-03-03 01:32:00,
2013-03-02 18:42:00,56.0,7.0,-100.00,West,279,5.0,12.0,14,0.00,,,0.00,92.000000,,2013-03-03 01:42:00,
2013-03-02 18:52:00,56.0,7.0,-100.00,West,279,5.0,12.0,14,0.00,,,0.00,92.000000,,2013-03-03 01:52:00,
2013-03-02 19:01:00,49.0,9.0,-100.00,North,356,3.0,8.0,19,0.00,,,0.00,1.000000,,2013-03-03 02:01:00,
2013-03-02 19:32:00,49.0,9.0,-100.00,North,356,3.0,8.0,19,0.00,,,0.00,1.000000,,2013-03-03 02:32:00,
2013-03-02 19:42:00,49.0,9.0,-100.00,North,356,3.0,8.0,19,0.00,,,0.00,1.000000,,2013-03-03 02:42:00,
2013-03-02 19:52:00,49.0,9.0,-100.00,North,356,3.0,8.0,19,0.00,,,0.00,1.000000,,2013-03-03 02:52:00,
2013-03-02 20:01:00,49.0,12.0,-100.00,NW,322,4.0,7.0,22,0.00,,,0.00,0.000000,,2013-03-03 03:01:00,
2013-03-02 20:32:00,49.0,12.0,-100.00,NW,322,4.0,7.0,22,0.00,,,0.00,0.000000,,2013-03-03 03:32:00,
2013-03-02 20:42:00,49.0,12.0,-100.00,NW,322,4.0,7.0,22,0.00,,,0.00,0.000000,,2013-03-03 03:42:00,
2013-03-02 20:52:00,49.0,12.0,-100.00,NW,322,4.0,7.0,22,0.00,,,0.00,0.000000,,2013-03-03 03:52:00,
2013-03-02 21:01:00,51.0,11.0,-100.00,SW,235,5.0,10.0,20,0.00,,,0.00,0.000000,,2013-03-03 04:01:00,
2013-03-02 21:32:00,51.0,11.0,-100.00,SW,235,5.0,10.0,20,0.00,,,0.00,0.000000,,2013-03-03 04:32:00,
2013-03-02 21:42:00,51.0,11.0,-100.00,SW,235,5.0,10.0,20,0.00,,,0.00,0.000000,,2013-03-03 04:42:00,
2013-03-02 21:52:00,51.0,11.0,-100.00,SW,235,5.0,10.0,20,0.00,,,0.00,0.000000,,2013-03-03 04:52:00,
2013-03-02 22:01:00,51.0,10.0,-100.00,WSW,250,7.0,12.0,19,0.00,,,0.00,0.000000,,2013-03-03 05:01:00,
2013-03-02 22:32:00,51.0,10.0,-100.00,WSW,250,7.0,12.0,19,0.00,,,0.00,0.000000,,2013-03-03 05:32:00,
2013-03-02 22:42:00,51.0,10.0,-100.00,WSW,250,7.0,12.0,19,0.00,,,0.00,0.000000,,2013-03-03 05:42:00,
2013-03-02 22:52:00,51.0,10.0,-100.00,WSW,250,7.0,12.0,19,0.00,,,0.00,0.000000,,2013-03-03 05:52:00,
2013-03-02 23:01:00,51.0,11.0,-100.00,WSW,248,7.0,13.0,20,0.00,,,0.00,0.000000,,2013-03-03 06:01:00,
2013-03-02 23:22:00,51.0,11.0,-100.00,WSW,248,7.0,13.0,20,0.00,,,0.00,0.000000,,2013-03-03 06:22:00,
2013-03-02 23:32:00,51.0,11.0,-100.00,WSW,248,7.0,13.0,20,0.00,,,0.00,0.000000,,2013-03-03 06:32:00,
2013-03-02 23:42:00,51.0,11.0,-100.00,WSW,248,7.0,13.0,20,0.00,,,0.00,0.000000,,2013-03-03 06:42:00,
2013-03-02 23:52:00,51.0,11.0,-100.00,WSW,248,7.0,13.0,20,0.00,,,0.00,0.000000,,2013-03-03 06:52:00,